Garlock, California
Current Conditions -  °F | °C
As of 4:56 PM on Friday 19 Dec 2014 (Local Time) from KNID Reporting Station
Clear Clear  
Wind Chill: 50°   Ceiling: Unl
Heat Index: 50°   Visibility: 10mi
Dew Point: 40°   Wind: 3mph
Humidity: 68%   Direction: 250°WSW
Pressure: 30.15"   Gusts: NA
Location:  35.4114°N, 117.737°W
Report Text: KNID 200056Z AUTO 25003KT 10SM CLR 10/04 A3015 RMK AO2 SLP218 T01000044 $
Loading
Personal Weather Stations






























Interactive Weather Map New forecast layout! Learn more

10-Day Weather Forecast

Advertisements
Track Severe Weather on mobile